This is the latest recevied weather packets stored in our database for station/object K1BES. If no packets are shown the sender has not sent any weather packets the latest 10 day(s).
| Time | Temp. | Humidity | Pressure | Rain* | Wind** | Luminosity | Snow |
|---|---|---|---|---|---|---|---|
| 1777487305 | 28.89° C | 62% | 1017.4 hPa | 0 mm | - | 975 W/m² | - |
| 1777487002 | 28.89° C | 64% | 1017.4 hPa | 0 mm | - | 981 W/m² | - |
| 1777486698 | 30° C | 62% | 1017.6 hPa | 0 mm | - | 987 W/m² | - |
| 1777486396 | 30° C | 64% | 1018 hPa | 0 mm | - | 996 W/m² | - |
| 1777486093 | 30° C | 62% | 1017.7 hPa | 0 mm | - | 1004 W/m² | - |
| 1777485789 | 30° C | 59% | 1018.3 hPa | 0 mm | - | 1010 W/m² | - |
| 1777485485 | 30.56° C | 56% | 1018.4 hPa | 0 mm | - | 1010 W/m² | - |
| 1777485181 | 30° C | 61% | 1018.1 hPa | 0 mm | - | 1017 W/m² | - |
| 1777484878 | 30° C | 61% | 1018.1 hPa | 0 mm | - | 1020 W/m² | - |
| 1777484575 | 30° C | 59% | 1018.2 hPa | 0 mm | - | 1023 W/m² | - |
| 1777484271 | 29.44° C | 59% | 1018.2 hPa | 0 mm | - | 1024 W/m² | - |
| 1777483968 | 29.44° C | 60% | 1018.4 hPa | 0 mm | - | 1026 W/m² | - |
| 1777483664 | 30° C | 59% | 1018.2 hPa | 0 mm | - | 1026 W/m² | - |
| 1777483360 | 30° C | 59% | 1018.3 hPa | 0 mm | - | 1025 W/m² | - |
| 1777483055 | 30° C | 57% | 1018.3 hPa | 0 mm | - | 1021 W/m² | - |
| 1777482752 | 30° C | 57% | 1018.3 hPa | 0 mm | - | 1020 W/m² | - |
| 1777482448 | 29.44° C | 61% | 1018.7 hPa | 0 mm | - | 1020 W/m² | - |
| 1777482146 | 29.44° C | 60% | 1018.8 hPa | 0 mm | - | 1014 W/m² | - |
| 1777481844 | 30° C | 59% | 1018.8 hPa | 0 mm | - | 1010 W/m² | - |
| 1777481541 | 30° C | 60% | 1019.1 hPa | 0 mm | - | 998 W/m² | - |
| 1777481237 | 29.44° C | 63% | 1019.3 hPa | 0 mm | - | 993 W/m² | - |
| 1777480935 | 28.89° C | 65% | 1019.2 hPa | 0 mm | - | 988 W/m² | - |
| 1777480630 | 29.44° C | 61% | 1019.2 hPa | 0 mm | - | 976 W/m² | - |
| 1777480328 | 28.89° C | 62% | 1019.4 hPa | 0 mm | - | 971 W/m² | - |
| 1777480023 | 30° C | 62% | 1019.3 hPa | 0 mm | - | 950 W/m² | - |
* Rain latest hour (hover to see other rain measurements)
** Current wind speed in m/s (hover to see current wind gust speed)